sensor_id;sensor_type;location;lat;lon;timestamp;temperature;humidity
67572;SHT31;54397;47.506;19.158;2023-12-20T00:00:04;0.32;86.59
67572;SHT31;54397;47.506;19.158;2023-12-20T00:03:27;0.46;86.14
67572;SHT31;54397;47.506;19.158;2023-12-20T00:06:48;0.63;85.37
67572;SHT31;54397;47.506;19.158;2023-12-20T00:10:10;0.56;85.39
67572;SHT31;54397;47.506;19.158;2023-12-20T00:13:36;0.59;85.61
67572;SHT31;54397;47.506;19.158;2023-12-20T00:16:58;0.59;85.72
67572;SHT31;54397;47.506;19.158;2023-12-20T00:20:20;0.46;85.99
67572;SHT31;54397;47.506;19.158;2023-12-20T00:23:44;0.46;85.85
67572;SHT31;54397;47.506;19.158;2023-12-20T00:27:08;0.46;85.70
67572;SHT31;54397;47.506;19.158;2023-12-20T00:30:32;0.38;85.82
67572;SHT31;54397;47.506;19.158;2023-12-20T00:33:56;0.43;85.57
67572;SHT31;54397;47.506;19.158;2023-12-20T00:37:18;0.59;84.95
67572;SHT31;54397;47.506;19.158;2023-12-20T00:40:42;0.60;85.00
67572;SHT31;54397;47.506;19.158;2023-12-20T00:44:04;0.49;84.18
67572;SHT31;54397;47.506;19.158;2023-12-20T00:47:26;0.41;84.91
67572;SHT31;54397;47.506;19.158;2023-12-20T00:50:47;0.42;85.46
67572;SHT31;54397;47.506;19.158;2023-12-20T00:54:09;0.49;84.93
67572;SHT31;54397;47.506;19.158;2023-12-20T00:57:33;0.53;84.55
67572;SHT31;54397;47.506;19.158;2023-12-20T01:00:55;0.50;84.99
67572;SHT31;54397;47.506;19.158;2023-12-20T01:04:17;0.62;84.54
67572;SHT31;54397;47.506;19.158;2023-12-20T01:07:43;0.62;84.43
67572;SHT31;54397;47.506;19.158;2023-12-20T01:11:08;0.60;84.90
67572;SHT31;54397;47.506;19.158;2023-12-20T01:14:30;0.53;84.89
67572;SHT31;54397;47.506;19.158;2023-12-20T01:17:51;0.50;85.07
67572;SHT31;54397;47.506;19.158;2023-12-20T01:21:15;0.49;85.61
67572;SHT31;54397;47.506;19.158;2023-12-20T01:24:39;0.32;85.53
67572;SHT31;54397;47.506;19.158;2023-12-20T01:28:03;0.32;85.85
67572;SHT31;54397;47.506;19.158;2023-12-20T01:31:27;0.22;86.22
67572;SHT31;54397;47.506;19.158;2023-12-20T01:34:54;0.35;86.14
67572;SHT31;54397;47.506;19.158;2023-12-20T01:38:20;0.24;86.30
67572;SHT31;54397;47.506;19.158;2023-12-20T01:41:44;0.29;86.32
67572;SHT31;54397;47.506;19.158;2023-12-20T01:45:07;0.26;86.33
67572;SHT31;54397;47.506;19.158;2023-12-20T01:48:29;0.33;86.14
67572;SHT31;54397;47.506;19.158;2023-12-20T01:51:58;0.41;86.37
67572;SHT31;54397;47.506;19.158;2023-12-20T01:55:20;0.38;86.35
67572;SHT31;54397;47.506;19.158;2023-12-20T01:58:44;0.39;86.81
67572;SHT31;54397;47.506;19.158;2023-12-20T02:02:08;0.41;86.96
67572;SHT31;54397;47.506;19.158;2023-12-20T02:05:31;0.45;86.62
67572;SHT31;54397;47.506;19.158;2023-12-20T02:08:55;0.45;86.25
67572;SHT31;54397;47.506;19.158;2023-12-20T02:12:20;0.54;85.76
67572;SHT31;54397;47.506;19.158;2023-12-20T02:15:45;0.59;86.27
67572;SHT31;54397;47.506;19.158;2023-12-20T02:19:13;0.69;86.50
67572;SHT31;54397;47.506;19.158;2023-12-20T02:22:36;0.57;85.89
67572;SHT31;54397;47.506;19.158;2023-12-20T02:26:00;0.39;86.97
67572;SHT31;54397;47.506;19.158;2023-12-20T02:29:22;0.28;87.57
67572;SHT31;54397;47.506;19.158;2023-12-20T02:32:46;0.36;87.76
67572;SHT31;54397;47.506;19.158;2023-12-20T02:36:08;0.43;87.62
67572;SHT31;54397;47.506;19.158;2023-12-20T02:39:30;0.60;87.42
67572;SHT31;54397;47.506;19.158;2023-12-20T02:42:52;0.56;87.51
67572;SHT31;54397;47.506;19.158;2023-12-20T02:46:17;0.62;87.13
67572;SHT31;54397;47.506;19.158;2023-12-20T02:49:41;0.54;87.57
67572;SHT31;54397;47.506;19.158;2023-12-20T02:53:06;0.48;87.78
67572;SHT31;54397;47.506;19.158;2023-12-20T02:56:27;0.46;88.43
67572;SHT31;54397;47.506;19.158;2023-12-20T02:59:49;0.53;88.26
67572;SHT31;54397;47.506;19.158;2023-12-20T03:03:13;0.49;88.24
67572;SHT31;54397;47.506;19.158;2023-12-20T03:06:35;0.45;87.73
67572;SHT31;54397;47.506;19.158;2023-12-20T03:09:59;0.53;87.45
67572;SHT31;54397;47.506;19.158;2023-12-20T03:13:42;0.50;86.57
67572;SHT31;54397;47.506;19.158;2023-12-20T03:17:04;0.63;85.84
67572;SHT31;54397;47.506;19.158;2023-12-20T03:20:29;0.50;86.61
67572;SHT31;54397;47.506;19.158;2023-12-20T03:23:54;0.49;86.50
67572;SHT31;54397;47.506;19.158;2023-12-20T03:27:19;0.43;87.38
67572;SHT31;54397;47.506;19.158;2023-12-20T03:30:40;0.36;87.63
67572;SHT31;54397;47.506;19.158;2023-12-20T03:34:04;0.53;87.73
67572;SHT31;54397;47.506;19.158;2023-12-20T03:37:26;0.56;87.27
67572;SHT31;54397;47.506;19.158;2023-12-20T03:40:48;0.57;87.40
67572;SHT31;54397;47.506;19.158;2023-12-20T03:44:12;0.67;86.97
67572;SHT31;54397;47.506;19.158;2023-12-20T03:47:34;0.60;87.08
67572;SHT31;54397;47.506;19.158;2023-12-20T03:50:59;0.57;87.04
67572;SHT31;54397;47.506;19.158;2023-12-20T03:54:20;0.69;86.09
67572;SHT31;54397;47.506;19.158;2023-12-20T03:57:42;0.59;86.36
67572;SHT31;54397;47.506;19.158;2023-12-20T04:01:09;0.63;86.62
67572;SHT31;54397;47.506;19.158;2023-12-20T04:04:32;0.64;87.32
67572;SHT31;54397;47.506;19.158;2023-12-20T04:07:54;0.49;87.17
67572;SHT31;54397;47.506;19.158;2023-12-20T04:11:18;0.48;87.19
67572;SHT31;54397;47.506;19.158;2023-12-20T04:14:40;0.48;86.76
67572;SHT31;54397;47.506;19.158;2023-12-20T04:18:05;0.45;87.17
67572;SHT31;54397;47.506;19.158;2023-12-20T04:21:26;0.56;87.12
67572;SHT31;54397;47.506;19.158;2023-12-20T04:24:48;0.77;86.62
67572;SHT31;54397;47.506;19.158;2023-12-20T04:28:10;0.73;86.28
67572;SHT31;54397;47.506;19.158;2023-12-20T04:31:31;0.67;86.21
67572;SHT31;54397;47.506;19.158;2023-12-20T04:34:53;0.56;86.38
67572;SHT31;54397;47.506;19.158;2023-12-20T04:38:15;0.57;86.38
67572;SHT31;54397;47.506;19.158;2023-12-20T04:41:36;0.56;86.36
67572;SHT31;54397;47.506;19.158;2023-12-20T04:44:58;0.50;86.65
67572;SHT31;54397;47.506;19.158;2023-12-20T04:48:22;0.39;86.56
67572;SHT31;54397;47.506;19.158;2023-12-20T04:51:44;0.35;87.53
67572;SHT31;54397;47.506;19.158;2023-12-20T04:55:11;0.38;87.79
67572;SHT31;54397;47.506;19.158;2023-12-20T04:58:33;0.56;87.06
67572;SHT31;54397;47.506;19.158;2023-12-20T05:01:54;0.45;86.88
67572;SHT31;54397;47.506;19.158;2023-12-20T05:05:20;0.38;87.35
67572;SHT31;54397;47.506;19.158;2023-12-20T05:08:44;0.28;87.09
67572;SHT31;54397;47.506;19.158;2023-12-20T05:12:06;0.29;87.58
67572;SHT31;54397;47.506;19.158;2023-12-20T05:15:28;0.36;87.62
67572;SHT31;54397;47.506;19.158;2023-12-20T05:18:52;0.62;86.86
67572;SHT31;54397;47.506;19.158;2023-12-20T05:22:16;0.46;86.56
67572;SHT31;54397;47.506;19.158;2023-12-20T05:25:41;0.67;86.66
67572;SHT31;54397;47.506;19.158;2023-12-20T05:29:03;0.90;85.78
67572;SHT31;54397;47.506;19.158;2023-12-20T05:32:29;0.88;85.79
67572;SHT31;54397;47.506;19.158;2023-12-20T05:35:51;0.85;85.74
67572;SHT31;54397;47.506;19.158;2023-12-20T05:39:13;0.74;85.89
67572;SHT31;54397;47.506;19.158;2023-12-20T05:42:35;0.72;85.98
67572;SHT31;54397;47.506;19.158;2023-12-20T05:45:56;0.70;86.01
67572;SHT31;54397;47.506;19.158;2023-12-20T05:49:19;0.70;86.18
67572;SHT31;54397;47.506;19.158;2023-12-20T05:52:41;0.83;85.83
67572;SHT31;54397;47.506;19.158;2023-12-20T05:56:06;0.84;85.21
67572;SHT31;54397;47.506;19.158;2023-12-20T05:59:30;0.84;85.72
67572;SHT31;54397;47.506;19.158;2023-12-20T06:02:56;0.72;86.46
67572;SHT31;54397;47.506;19.158;2023-12-20T06:06:18;0.73;86.56
67572;SHT31;54397;47.506;19.158;2023-12-20T06:09:39;0.76;86.15
67572;SHT31;54397;47.506;19.158;2023-12-20T06:13:04;0.80;85.85
67572;SHT31;54397;47.506;19.158;2023-12-20T06:16:28;0.77;84.56
67572;SHT31;54397;47.506;19.158;2023-12-20T06:19:50;0.79;85.04
67572;SHT31;54397;47.506;19.158;2023-12-20T06:23:14;0.69;85.44
67572;SHT31;54397;47.506;19.158;2023-12-20T06:26:35;0.62;85.53
67572;SHT31;54397;47.506;19.158;2023-12-20T06:30:00;0.57;85.90
67572;SHT31;54397;47.506;19.158;2023-12-20T06:33:21;0.69;85.89
67572;SHT31;54397;47.506;19.158;2023-12-20T06:36:45;0.70;86.01
67572;SHT31;54397;47.506;19.158;2023-12-20T06:40:08;0.64;85.72
67572;SHT31;54397;47.506;19.158;2023-12-20T06:43:38;0.64;85.53
67572;SHT31;54397;47.506;19.158;2023-12-20T06:47:10;0.74;85.96
67572;SHT31;54397;47.506;19.158;2023-12-20T06:50:32;0.76;85.63
67572;SHT31;54397;47.506;19.158;2023-12-20T06:53:56;0.73;85.78
67572;SHT31;54397;47.506;19.158;2023-12-20T06:57:18;0.72;86.53
67572;SHT31;54397;47.506;19.158;2023-12-20T07:00:41;0.66;86.32
67572;SHT31;54397;47.506;19.158;2023-12-20T07:04:05;0.56;86.69
67572;SHT31;54397;47.506;19.158;2023-12-20T07:07:27;0.42;87.02
67572;SHT31;54397;47.506;19.158;2023-12-20T07:10:48;0.29;87.57
67572;SHT31;54397;47.506;19.158;2023-12-20T07:14:12;0.48;87.55
67572;SHT31;54397;47.506;19.158;2023-12-20T07:17:37;0.53;87.57
67572;SHT31;54397;47.506;19.158;2023-12-20T07:20:59;0.56;87.71
67572;SHT31;54397;47.506;19.158;2023-12-20T07:24:21;0.53;87.79
67572;SHT31;54397;47.506;19.158;2023-12-20T07:27:42;0.56;88.09
67572;SHT31;54397;47.506;19.158;2023-12-20T07:31:07;0.62;87.75
67572;SHT31;54397;47.506;19.158;2023-12-20T07:34:32;0.57;87.41
67572;SHT31;54397;47.506;19.158;2023-12-20T07:37:57;0.77;87.28
67572;SHT31;54397;47.506;19.158;2023-12-20T07:41:25;1.00;86.07
67572;SHT31;54397;47.506;19.158;2023-12-20T07:44:47;0.92;86.07
67572;SHT31;54397;47.506;19.158;2023-12-20T07:48:09;0.92;86.54
67572;SHT31;54397;47.506;19.158;2023-12-20T07:51:31;0.80;86.85
67572;SHT31;54397;47.506;19.158;2023-12-20T07:54:53;0.80;87.31
67572;SHT31;54397;47.506;19.158;2023-12-20T07:58:15;0.77;86.66
67572;SHT31;54397;47.506;19.158;2023-12-20T08:01:40;0.70;87.43
67572;SHT31;54397;47.506;19.158;2023-12-20T08:05:05;0.81;87.32
67572;SHT31;54397;47.506;19.158;2023-12-20T08:08:29;0.83;87.18
67572;SHT31;54397;47.506;19.158;2023-12-20T08:11:53;0.94;86.70
67572;SHT31;54397;47.506;19.158;2023-12-20T08:15:15;0.92;86.81
67572;SHT31;54397;47.506;19.158;2023-12-20T08:18:39;0.92;87.02
67572;SHT31;54397;47.506;19.158;2023-12-20T08:22:01;0.94;86.96
67572;SHT31;54397;47.506;19.158;2023-12-20T08:25:23;0.97;87.00
67572;SHT31;54397;47.506;19.158;2023-12-20T08:28:45;0.95;86.84
67572;SHT31;54397;47.506;19.158;2023-12-20T08:32:06;0.91;87.25
67572;SHT31;54397;47.506;19.158;2023-12-20T08:35:31;1.39;93.43
67572;SHT31;54397;47.506;19.158;2023-12-20T08:38:53;2.60;97.06
67572;SHT31;54397;47.506;19.158;2023-12-20T08:42:17;2.94;94.95
67572;SHT31;54397;47.506;19.158;2023-12-20T08:45:38;3.01;91.53
67572;SHT31;54397;47.506;19.158;2023-12-20T08:49:05;3.05;89.39
67572;SHT31;54397;47.506;19.158;2023-12-20T08:52:27;3.21;86.09
67572;SHT31;54397;47.506;19.158;2023-12-20T08:55:49;2.90;81.53
67572;SHT31;54397;47.506;19.158;2023-12-20T08:59:10;2.82;80.69
67572;SHT31;54397;47.506;19.158;2023-12-20T09:02:33;2.41;81.95
67572;SHT31;54397;47.506;19.158;2023-12-20T09:05:57;2.39;82.35
67572;SHT31;54397;47.506;19.158;2023-12-20T09:09:19;2.44;82.02
67572;SHT31;54397;47.506;19.158;2023-12-20T09:12:48;2.29;82.68
67572;SHT31;54397;47.506;19.158;2023-12-20T09:16:09;2.15;83.02
67572;SHT31;54397;47.506;19.158;2023-12-20T09:19:31;1.59;83.96
67572;SHT31;54397;47.506;19.158;2023-12-20T09:22:56;1.69;84.88
67572;SHT31;54397;47.506;19.158;2023-12-20T09:26:18;1.79;83.76
67572;SHT31;54397;47.506;19.158;2023-12-20T09:29:40;2.57;95.24
67572;SHT31;54397;47.506;19.158;2023-12-20T09:33:04;3.34;95.09
67572;SHT31;54397;47.506;19.158;2023-12-20T09:36:29;3.76;93.36
67572;SHT31;54397;47.506;19.158;2023-12-20T09:39:57;3.55;88.08
67572;SHT31;54397;47.506;19.158;2023-12-20T09:43:24;3.52;87.25
67572;SHT31;54397;47.506;19.158;2023-12-20T09:46:50;3.78;87.63
67572;SHT31;54397;47.506;19.158;2023-12-20T09:50:21;3.76;84.02
67572;SHT31;54397;47.506;19.158;2023-12-20T09:53:49;3.36;79.26
67572;SHT31;54397;47.506;19.158;2023-12-20T09:57:12;2.83;80.45
67572;SHT31;54397;47.506;19.158;2023-12-20T10:00:37;2.44;82.06
67572;SHT31;54397;47.506;19.158;2023-12-20T10:04:00;2.39;82.96
67572;SHT31;54397;47.506;19.158;2023-12-20T10:07:34;2.45;84.83
67572;SHT31;54397;47.506;19.158;2023-12-20T10:10:59;2.53;83.23
67572;SHT31;54397;47.506;19.158;2023-12-20T10:14:24;2.50;82.48
67572;SHT31;54397;47.506;19.158;2023-12-20T10:17:51;2.53;83.13
67572;SHT31;54397;47.506;19.158;2023-12-20T10:21:15;2.97;87.40
67572;SHT31;54397;47.506;19.158;2023-12-20T10:24:41;3.59;87.33
67572;SHT31;54397;47.506;19.158;2023-12-20T10:28:15;4.00;86.77
67572;SHT31;54397;47.506;19.158;2023-12-20T10:31:42;4.31;84.35
67572;SHT31;54397;47.506;19.158;2023-12-20T10:35:06;4.40;83.72
67572;SHT31;54397;47.506;19.158;2023-12-20T10:38:29;4.40;83.51
67572;SHT31;54397;47.506;19.158;2023-12-20T10:41:54;4.54;83.22
67572;SHT31;54397;47.506;19.158;2023-12-20T10:45:28;4.27;81.80
67572;SHT31;54397;47.506;19.158;2023-12-20T10:48:53;4.30;84.05
67572;SHT31;54397;47.506;19.158;2023-12-20T10:52:19;4.40;83.44
67572;SHT31;54397;47.506;19.158;2023-12-20T10:55:45;4.90;83.34
67572;SHT31;54397;47.506;19.158;2023-12-20T10:59:11;6.02;73.48
67572;SHT31;54397;47.506;19.158;2023-12-20T11:02:39;7.09;68.02
67572;SHT31;54397;47.506;19.158;2023-12-20T11:10:31;8.13;64.48
67572;SHT31;54397;47.506;19.158;2023-12-20T11:14:06;8.30;64.88
67572;SHT31;54397;47.506;19.158;2023-12-20T11:17:31;8.65;63.05
67572;SHT31;54397;47.506;19.158;2023-12-20T11:20:54;9.16;62.26
67572;SHT31;54397;47.506;19.158;2023-12-20T11:24:22;8.57;62.76
67572;SHT31;54397;47.506;19.158;2023-12-20T11:28:07;9.15;63.16
67572;SHT31;54397;47.506;19.158;2023-12-20T11:31:40;9.87;61.18
67572;SHT31;54397;47.506;19.158;2023-12-20T11:38:53;11.54;55.57
67572;SHT31;54397;47.506;19.158;2023-12-20T11:42:15;11.62;56.14
67572;SHT31;54397;47.506;19.158;2023-12-20T11:45:49;11.40;57.74
67572;SHT31;54397;47.506;19.158;2023-12-20T11:49:17;11.66;60.96
67572;SHT31;54397;47.506;19.158;2023-12-20T11:52:39;12.21;57.93
67572;SHT31;54397;47.506;19.158;2023-12-20T11:56:01;12.82;54.15
67572;SHT31;54397;47.506;19.158;2023-12-20T11:59:25;14.06;52.98
67572;SHT31;54397;47.506;19.158;2023-12-20T12:02:57;14.47;52.58
67572;SHT31;54397;47.506;19.158;2023-12-20T12:06:19;15.40;48.26
67572;SHT31;54397;47.506;19.158;2023-12-20T12:09:41;14.71;49.38
67572;SHT31;54397;47.506;19.158;2023-12-20T12:13:04;14.20;50.76
67572;SHT31;54397;47.506;19.158;2023-12-20T12:16:28;13.02;53.03
67572;SHT31;54397;47.506;19.158;2023-12-20T12:19:50;13.55;52.37
67572;SHT31;54397;47.506;19.158;2023-12-20T12:23:12;13.54;52.86
67572;SHT31;54397;47.506;19.158;2023-12-20T12:26:34;13.16;53.60
67572;SHT31;54397;47.506;19.158;2023-12-20T12:30:05;12.08;56.35
67572;SHT31;54397;47.506;19.158;2023-12-20T12:33:29;11.91;57.53
67572;SHT31;54397;47.506;19.158;2023-12-20T12:36:51;11.42;59.07
67572;SHT31;54397;47.506;19.158;2023-12-20T12:40:15;10.52;61.42
67572;SHT31;54397;47.506;19.158;2023-12-20T12:43:37;9.88;64.30
67572;SHT31;54397;47.506;19.158;2023-12-20T12:46:58;8.99;67.25
67572;SHT31;54397;47.506;19.158;2023-12-20T12:50:20;8.40;68.99
67572;SHT31;54397;47.506;19.158;2023-12-20T12:53:43;8.36;68.84
67572;SHT31;54397;47.506;19.158;2023-12-20T12:57:13;8.07;70.37
67572;SHT31;54397;47.506;19.158;2023-12-20T13:00:37;7.85;71.00
67572;SHT31;54397;47.506;19.158;2023-12-20T13:06:11;7.71;71.63
67572;SHT31;54397;47.506;19.158;2023-12-20T13:09:33;7.54;71.97
67572;SHT31;54397;47.506;19.158;2023-12-20T13:12:54;7.43;73.01
67572;SHT31;54397;47.506;19.158;2023-12-20T13:16:16;7.28;73.45
67572;SHT31;54397;47.506;19.158;2023-12-20T13:19:38;7.26;73.82
67572;SHT31;54397;47.506;19.158;2023-12-20T13:23:00;7.20;74.23
67572;SHT31;54397;47.506;19.158;2023-12-20T13:26:22;7.05;74.76
67572;SHT31;54397;47.506;19.158;2023-12-20T13:29:45;6.98;75.30
67572;SHT31;54397;47.506;19.158;2023-12-20T13:33:13;6.81;75.96
67572;SHT31;54397;47.506;19.158;2023-12-20T13:36:37;6.77;76.58
67572;SHT31;54397;47.506;19.158;2023-12-20T13:40:03;6.91;76.06
67572;SHT31;54397;47.506;19.158;2023-12-20T13:43:28;6.86;75.76
67572;SHT31;54397;47.506;19.158;2023-12-20T13:46:50;6.72;75.61
67572;SHT31;54397;47.506;19.158;2023-12-20T13:50:12;6.88;75.66
67572;SHT31;54397;47.506;19.158;2023-12-20T13:53:34;6.81;74.91
67572;SHT31;54397;47.506;19.158;2023-12-20T13:56:56;6.37;75.90
67572;SHT31;54397;47.506;19.158;2023-12-20T14:00:33;6.54;75.16
67572;SHT31;54397;47.506;19.158;2023-12-20T14:03:54;6.57;74.64
67572;SHT31;54397;47.506;19.158;2023-12-20T14:07:16;6.47;74.75
67572;SHT31;54397;47.506;19.158;2023-12-20T14:10:38;6.50;74.93
67572;SHT31;54397;47.506;19.158;2023-12-20T14:14:00;6.20;75.67
67572;SHT31;54397;47.506;19.158;2023-12-20T14:17:23;6.17;75.96
67572;SHT31;54397;47.506;19.158;2023-12-20T14:20:48;6.26;75.68
67572;SHT31;54397;47.506;19.158;2023-12-20T14:24:10;6.61;74.58
67572;SHT31;54397;47.506;19.158;2023-12-20T14:27:32;6.17;75.86
67572;SHT31;54397;47.506;19.158;2023-12-20T14:30:53;6.24;76.21
67572;SHT31;54397;47.506;19.158;2023-12-20T14:34:18;6.20;75.79
67572;SHT31;54397;47.506;19.158;2023-12-20T14:37:42;6.27;76.00
67572;SHT31;54397;47.506;19.158;2023-12-20T14:41:04;6.26;75.76
67572;SHT31;54397;47.506;19.158;2023-12-20T14:44:29;6.17;76.19
67572;SHT31;54397;47.506;19.158;2023-12-20T14:47:51;6.26;76.50
67572;SHT31;54397;47.506;19.158;2023-12-20T14:51:15;6.37;76.01
67572;SHT31;54397;47.506;19.158;2023-12-20T14:54:37;6.37;76.02
67572;SHT31;54397;47.506;19.158;2023-12-20T14:58:03;6.21;76.33
67572;SHT31;54397;47.506;19.158;2023-12-20T15:01:31;6.42;76.21
67572;SHT31;54397;47.506;19.158;2023-12-20T15:04:53;6.20;77.28
67572;SHT31;54397;47.506;19.158;2023-12-20T15:08:15;6.38;76.85
67572;SHT31;54397;47.506;19.158;2023-12-20T15:11:36;6.40;77.14
67572;SHT31;54397;47.506;19.158;2023-12-20T15:14:58;6.41;77.13
67572;SHT31;54397;47.506;19.158;2023-12-20T15:18:20;6.26;77.13
67572;SHT31;54397;47.506;19.158;2023-12-20T15:21:41;6.27;77.41
67572;SHT31;54397;47.506;19.158;2023-12-20T15:25:11;6.38;77.54
67572;SHT31;54397;47.506;19.158;2023-12-20T15:28:33;6.51;77.04
67572;SHT31;54397;47.506;19.158;2023-12-20T15:31:55;6.45;76.90
67572;SHT31;54397;47.506;19.158;2023-12-20T15:35:20;6.34;77.53
67572;SHT31;54397;47.506;19.158;2023-12-20T15:38:42;6.48;76.39
67572;SHT31;54397;47.506;19.158;2023-12-20T15:42:04;6.10;77.18
67572;SHT31;54397;47.506;19.158;2023-12-20T15:45:25;6.06;77.03
67572;SHT31;54397;47.506;19.158;2023-12-20T15:48:49;5.88;77.75
67572;SHT31;54397;47.506;19.158;2023-12-20T15:52:13;6.69;91.18
67572;SHT31;54397;47.506;19.158;2023-12-20T15:55:34;7.53;89.23
67572;SHT31;54397;47.506;19.158;2023-12-20T15:58:56;8.14;85.54
67572;SHT31;54397;47.506;19.158;2023-12-20T16:02:19;8.44;78.85
67572;SHT31;54397;47.506;19.158;2023-12-20T16:05:43;8.33;75.18
67572;SHT31;54397;47.506;19.158;2023-12-20T16:09:05;8.14;72.47
67572;SHT31;54397;47.506;19.158;2023-12-20T16:12:27;7.61;71.84
67572;SHT31;54397;47.506;19.158;2023-12-20T16:15:49;7.34;72.10
67572;SHT31;54397;47.506;19.158;2023-12-20T16:19:13;6.42;74.36
67572;SHT31;54397;47.506;19.158;2023-12-20T16:22:35;6.38;75.72
67572;SHT31;54397;47.506;19.158;2023-12-20T16:25:58;6.47;75.34
67572;SHT31;54397;47.506;19.158;2023-12-20T16:29:21;6.26;75.10
67572;SHT31;54397;47.506;19.158;2023-12-20T16:32:48;6.29;75.52
67572;SHT31;54397;47.506;19.158;2023-12-20T16:36:14;5.81;76.39
67572;SHT31;54397;47.506;19.158;2023-12-20T16:39:36;5.83;77.20
67572;SHT31;54397;47.506;19.158;2023-12-20T16:43:00;5.82;76.84
67572;SHT31;54397;47.506;19.158;2023-12-20T16:46:22;5.81;77.14
67572;SHT31;54397;47.506;19.158;2023-12-20T16:49:43;6.02;84.25
67572;SHT31;54397;47.506;19.158;2023-12-20T16:53:05;6.37;84.53
67572;SHT31;54397;47.506;19.158;2023-12-20T16:56:30;6.63;82.27
67572;SHT31;54397;47.506;19.158;2023-12-20T16:59:51;6.79;81.57
67572;SHT31;54397;47.506;19.158;2023-12-20T17:03:13;6.84;80.77
67572;SHT31;54397;47.506;19.158;2023-12-20T17:06:35;6.79;80.73
67572;SHT31;54397;47.506;19.158;2023-12-20T17:09:56;6.72;79.09
67572;SHT31;54397;47.506;19.158;2023-12-20T17:13:20;6.54;74.73
67572;SHT31;54397;47.506;19.158;2023-12-20T17:16:42;6.19;75.43
67572;SHT31;54397;47.506;19.158;2023-12-20T17:20:09;5.96;76.09
67572;SHT31;54397;47.506;19.158;2023-12-20T17:23:30;5.88;76.38
67572;SHT31;54397;47.506;19.158;2023-12-20T17:26:54;5.75;76.77
67572;SHT31;54397;47.506;19.158;2023-12-20T17:30:16;5.72;76.97
67572;SHT31;54397;47.506;19.158;2023-12-20T17:33:43;5.55;77.44
67572;SHT31;54397;47.506;19.158;2023-12-20T17:37:05;5.37;78.05
67572;SHT31;54397;47.506;19.158;2023-12-20T17:40:27;5.26;78.37
67572;SHT31;54397;47.506;19.158;2023-12-20T17:43:48;5.41;78.19
67572;SHT31;54397;47.506;19.158;2023-12-20T17:47:10;5.34;78.15
67572;SHT31;54397;47.506;19.158;2023-12-20T17:50:34;5.17;78.77
67572;SHT31;54397;47.506;19.158;2023-12-20T17:53:56;5.48;86.26
67572;SHT31;54397;47.506;19.158;2023-12-20T17:57:18;5.58;83.39
67572;SHT31;54397;47.506;19.158;2023-12-20T18:00:40;5.86;84.41
67572;SHT31;54397;47.506;19.158;2023-12-20T18:04:02;6.05;83.93
67572;SHT31;54397;47.506;19.158;2023-12-20T18:07:26;6.14;83.71
67572;SHT31;54397;47.506;19.158;2023-12-20T18:10:48;5.68;78.65
67572;SHT31;54397;47.506;19.158;2023-12-20T18:14:10;5.79;81.53
67572;SHT31;54397;47.506;19.158;2023-12-20T18:17:32;5.20;79.05
67572;SHT31;54397;47.506;19.158;2023-12-20T18:20:54;4.97;79.42
67572;SHT31;54397;47.506;19.158;2023-12-20T18:24:16;4.77;80.89
67572;SHT31;54397;47.506;19.158;2023-12-20T18:27:38;4.83;80.23
67572;SHT31;54397;47.506;19.158;2023-12-20T18:31:00;4.80;80.65
67572;SHT31;54397;47.506;19.158;2023-12-20T18:34:22;4.90;80.22
67572;SHT31;54397;47.506;19.158;2023-12-20T18:37:45;4.90;80.08
67572;SHT31;54397;47.506;19.158;2023-12-20T18:41:08;4.97;80.45
67572;SHT31;54397;47.506;19.158;2023-12-20T18:44:29;4.80;80.88
67572;SHT31;54397;47.506;19.158;2023-12-20T18:47:51;4.90;80.85
67572;SHT31;54397;47.506;19.158;2023-12-20T18:51:15;5.06;80.77
67572;SHT31;54397;47.506;19.158;2023-12-20T18:55:09;5.10;80.39
67572;SHT31;54397;47.506;19.158;2023-12-20T18:59:06;5.13;80.12
67572;SHT31;54397;47.506;19.158;2023-12-20T19:07:34;5.72;85.66
67572;SHT31;54397;47.506;19.158;2023-12-20T19:11:04;5.89;84.41
67572;SHT31;54397;47.506;19.158;2023-12-20T19:14:26;6.14;84.81
67572;SHT31;54397;47.506;19.158;2023-12-20T19:17:48;6.27;83.32
67572;SHT31;54397;47.506;19.158;2023-12-20T19:21:10;6.27;82.66
67572;SHT31;54397;47.506;19.158;2023-12-20T19:24:31;6.06;76.62
67572;SHT31;54397;47.506;19.158;2023-12-20T19:27:53;5.81;77.44
67572;SHT31;54397;47.506;19.158;2023-12-20T19:31:15;5.55;78.03
67572;SHT31;54397;47.506;19.158;2023-12-20T19:34:40;5.19;79.59
67572;SHT31;54397;47.506;19.158;2023-12-20T19:38:04;5.13;79.98
67572;SHT31;54397;47.506;19.158;2023-12-20T19:41:25;5.09;80.33
67572;SHT31;54397;47.506;19.158;2023-12-20T19:44:47;4.89;80.98
67572;SHT31;54397;47.506;19.158;2023-12-20T19:48:09;4.87;80.78
67572;SHT31;54397;47.506;19.158;2023-12-20T19:51:30;4.92;80.73
67572;SHT31;54397;47.506;19.158;2023-12-20T19:54:54;4.99;80.84
67572;SHT31;54397;47.506;19.158;2023-12-20T19:58:19;4.95;80.69
67572;SHT31;54397;47.506;19.158;2023-12-20T20:01:43;4.96;80.58
67572;SHT31;54397;47.506;19.158;2023-12-20T20:05:07;4.89;81.21
67572;SHT31;54397;47.506;19.158;2023-12-20T20:08:31;5.28;86.23
67572;SHT31;54397;47.506;19.158;2023-12-20T20:11:58;5.85;87.43
67572;SHT31;54397;47.506;19.158;2023-12-20T20:15:22;5.72;83.04
67572;SHT31;54397;47.506;19.158;2023-12-20T20:18:46;6.16;84.37
67572;SHT31;54397;47.506;19.158;2023-12-20T20:22:10;6.31;82.88
67572;SHT31;54397;47.506;19.158;2023-12-20T20:25:34;6.10;77.88
67572;SHT31;54397;47.506;19.158;2023-12-20T20:28:56;5.90;77.46
67572;SHT31;54397;47.506;19.158;2023-12-20T20:32:17;5.37;78.70
67572;SHT31;54397;47.506;19.158;2023-12-20T20:35:39;5.43;79.33
67572;SHT31;54397;47.506;19.158;2023-12-20T20:39:01;5.40;78.95
67572;SHT31;54397;47.506;19.158;2023-12-20T20:42:25;5.22;79.00
67572;SHT31;54397;47.506;19.158;2023-12-20T20:45:52;5.16;79.11
67572;SHT31;54397;47.506;19.158;2023-12-20T20:49:15;4.96;79.90
67572;SHT31;54397;47.506;19.158;2023-12-20T20:52:40;4.92;80.02
67572;SHT31;54397;47.506;19.158;2023-12-20T20:56:04;4.87;79.81
67572;SHT31;54397;47.506;19.158;2023-12-20T20:59:28;4.87;80.08
67572;SHT31;54397;47.506;19.158;2023-12-20T21:02:53;4.80;80.48
67572;SHT31;54397;47.506;19.158;2023-12-20T21:06:16;4.73;80.40
67572;SHT31;54397;47.506;19.158;2023-12-20T21:09:38;4.77;80.14
67572;SHT31;54397;47.506;19.158;2023-12-20T21:13:00;4.72;80.50
67572;SHT31;54397;47.506;19.158;2023-12-20T21:16:22;4.72;80.61
67572;SHT31;54397;47.506;19.158;2023-12-20T21:19:47;4.68;81.82
67572;SHT31;54397;47.506;19.158;2023-12-20T21:23:09;5.01;88.19
67572;SHT31;54397;47.506;19.158;2023-12-20T21:26:31;5.35;86.90
67572;SHT31;54397;47.506;19.158;2023-12-20T21:29:55;5.69;85.06
67572;SHT31;54397;47.506;19.158;2023-12-20T21:33:17;6.06;85.50
67572;SHT31;54397;47.506;19.158;2023-12-20T21:36:38;6.29;84.38
67572;SHT31;54397;47.506;19.158;2023-12-20T21:40:00;6.37;79.85